createdAt,value
2023-01-15T00:01:46.097Z,12.48
2023-01-15T00:04:14.072Z,12.52
2023-01-15T00:06:44.140Z,13.48
2023-01-15T00:09:15.641Z,12.25
2023-01-15T00:11:43.655Z,10.15
2023-01-15T00:14:12.433Z,11.98
2023-01-15T00:16:40.816Z,12.32
2023-01-15T00:19:10.990Z,10.73
2023-01-15T00:21:39.113Z,11.65
2023-01-15T00:24:25.692Z,12.38
2023-01-15T00:27:12.527Z,12.10
2023-01-15T00:29:40.310Z,9.48
2023-01-15T00:32:09.253Z,11.82
2023-01-15T00:34:37.121Z,7.07
2023-01-15T00:37:05.196Z,11.80
2023-01-15T00:39:35.532Z,10.60
2023-01-15T00:42:04.200Z,11.02
2023-01-15T00:44:33.828Z,11.32
2023-01-15T00:47:02.044Z,10.35
2023-01-15T00:49:30.337Z,10.15
2023-01-15T00:51:58.327Z,10.93
2023-01-15T00:54:26.215Z,10.75
2023-01-15T00:56:54.405Z,10.15
2023-01-15T00:59:22.157Z,10.20
2023-01-15T01:01:50.426Z,10.70
2023-01-15T01:04:18.215Z,11.35
2023-01-15T01:06:46.142Z,10.93
2023-01-15T01:09:15.676Z,11.55
2023-01-15T01:11:44.508Z,11.13
2023-01-15T01:14:13.268Z,10.52
2023-01-15T01:16:42.570Z,10.27
2023-01-15T01:19:17.869Z,10.40
2023-01-15T01:21:47.561Z,8.68
2023-01-15T01:24:22.073Z,9.50
2023-01-15T01:26:52.816Z,9.88
2023-01-15T01:29:23.857Z,10.20
2023-01-15T01:31:52.196Z,10.82
2023-01-15T01:34:19.884Z,9.07
2023-01-15T01:36:48.116Z,9.73
2023-01-15T01:39:18.496Z,10.23
2023-01-15T01:41:47.400Z,9.82
2023-01-15T01:44:37.085Z,9.80
2023-01-15T01:47:15.811Z,10.48
2023-01-15T01:49:46.355Z,8.77
2023-01-15T01:52:21.087Z,9.90
2023-01-15T01:54:51.310Z,10.57
2023-01-15T01:57:21.637Z,10.85
2023-01-15T01:59:50.126Z,10.48
2023-01-15T02:02:22.159Z,10.23
2023-01-15T02:04:51.213Z,10.77
2023-01-15T02:07:19.337Z,10.52
2023-01-15T02:09:47.218Z,8.93
2023-01-15T02:12:50.879Z,10.43
2023-01-15T02:15:32.607Z,8.90
2023-01-15T02:18:19.613Z,8.48
2023-01-15T02:21:04.949Z,10.55
2023-01-15T02:23:55.694Z,10.82
2023-01-15T02:26:45.117Z,11.45
2023-01-15T02:29:24.541Z,10.73
2023-01-15T02:31:53.370Z,11.32
2023-01-15T02:34:30.027Z,10.48
2023-01-15T02:37:06.285Z,10.00
2023-01-15T02:39:40.324Z,10.93
2023-01-15T02:42:11.246Z,9.13
2023-01-15T02:44:50.235Z,10.73
2023-01-15T02:47:24.348Z,8.05
2023-01-15T02:49:55.781Z,10.57
2023-01-15T02:52:39.053Z,10.18
2023-01-15T02:55:23.235Z,9.27
2023-01-15T02:57:55.853Z,10.10
2023-01-15T03:00:25.940Z,10.20
2023-01-15T03:03:13.124Z,9.13
2023-01-15T03:06:04.315Z,8.63
2023-01-15T03:08:32.707Z,9.57
2023-01-15T03:11:15.890Z,9.85
2023-01-15T03:13:49.304Z,10.45
2023-01-15T03:16:35.775Z,7.68
2023-01-15T03:19:35.961Z,9.85
2023-01-15T03:22:23.615Z,9.05
2023-01-15T03:25:02.838Z,8.38
2023-01-15T03:27:34.729Z,6.97
2023-01-15T03:30:15.897Z,9.38
2023-01-15T03:32:44.310Z,9.07
2023-01-15T03:35:50.837Z,7.38
2023-01-15T03:38:38.962Z,7.93
2023-01-15T03:41:09.871Z,7.90
2023-01-15T03:44:10.365Z,7.97
2023-01-15T03:46:53.082Z,7.63
2023-01-15T03:49:29.358Z,8.32
2023-01-15T03:52:03.331Z,6.85
2023-01-15T03:54:47.794Z,6.82
2023-01-15T03:59:56.024Z,7.45
2023-01-15T04:02:25.279Z,4.88
2023-01-15T04:04:54.892Z,6.97
2023-01-15T04:07:24.965Z,6.03
2023-01-15T04:09:53.371Z,7.35
2023-01-15T04:12:21.809Z,7.15
2023-01-15T04:14:49.974Z,6.63
2023-01-15T04:17:21.312Z,6.38
2023-01-15T04:19:49.179Z,6.85
2023-01-15T04:22:17.220Z,6.65
2023-01-15T04:24:45.446Z,6.15
2023-01-15T04:27:13.265Z,5.93
2023-01-15T04:29:41.257Z,6.00
2023-01-15T04:32:08.940Z,6.47
2023-01-15T04:34:36.950Z,6.40
2023-01-15T04:37:04.852Z,6.18
2023-01-15T04:39:33.282Z,5.88
2023-01-15T04:42:19.384Z,5.97
2023-01-15T04:44:47.282Z,5.57
2023-01-15T04:47:14.968Z,5.90
2023-01-15T04:49:42.990Z,6.13
2023-01-15T04:52:10.669Z,4.82
2023-01-15T04:54:39.316Z,6.20
2023-01-15T04:57:07.123Z,5.47
2023-01-15T04:59:35.007Z,5.60
2023-01-15T05:02:05.969Z,4.55
2023-01-15T05:04:35.835Z,6.18
2023-01-15T05:07:05.302Z,6.15
2023-01-15T05:09:33.545Z,5.90
2023-01-15T05:12:01.139Z,5.50
2023-01-15T05:14:29.337Z,5.10
2023-01-15T05:16:57.086Z,5.20
2023-01-15T05:19:25.011Z,5.63
2023-01-15T05:21:53.823Z,5.32
2023-01-15T05:24:21.850Z,5.18
2023-01-15T05:26:49.515Z,5.20
2023-01-15T05:29:17.469Z,5.13
2023-01-15T05:31:45.343Z,4.35
2023-01-15T05:34:13.877Z,4.18
2023-01-15T05:36:42.137Z,5.63
2023-01-15T05:39:10.262Z,4.60
2023-01-15T05:41:50.874Z,5.25
2023-01-15T05:44:23.503Z,5.20
2023-01-15T05:46:53.750Z,4.22
2023-01-15T05:49:24.431Z,4.97
2023-01-15T05:51:53.260Z,4.63
2023-01-15T05:54:27.437Z,4.50
2023-01-15T05:56:55.764Z,4.97
2023-01-15T05:59:26.299Z,4.70
2023-01-15T06:01:54.308Z,4.80
2023-01-15T06:04:23.009Z,4.43
2023-01-15T06:06:51.787Z,4.30
2023-01-15T06:09:23.055Z,4.38
2023-01-15T06:11:53.742Z,4.95
2023-01-15T06:14:21.845Z,4.40
2023-01-15T06:16:49.471Z,4.85
2023-01-15T06:19:17.456Z,4.20
2023-01-15T06:21:45.078Z,4.00
2023-01-15T06:24:13.052Z,4.00
2023-01-15T06:26:40.877Z,4.25
2023-01-15T06:29:08.851Z,3.42
2023-01-15T06:31:36.599Z,3.65
2023-01-15T06:34:04.990Z,3.75
2023-01-15T06:36:32.682Z,4.03
2023-01-15T06:39:00.979Z,4.38
2023-01-15T06:41:47.307Z,4.00
2023-01-15T06:44:36.390Z,4.38
2023-01-15T06:47:24.219Z,3.47
2023-01-15T06:49:58.171Z,4.03
2023-01-15T06:52:27.749Z,4.63
2023-01-15T06:54:56.274Z,3.05
2023-01-15T06:57:24.088Z,4.25
2023-01-15T06:59:52.170Z,4.22
2023-01-15T07:02:21.681Z,4.10
2023-01-15T07:04:49.996Z,3.67
2023-01-15T07:07:20.597Z,3.80
2023-01-15T07:09:48.556Z,4.18
2023-01-15T07:12:17.263Z,3.92
2023-01-15T07:14:44.993Z,3.78
2023-01-15T07:17:13.395Z,4.07
2023-01-15T07:19:41.188Z,4.25
2023-01-15T07:22:10.882Z,3.33
2023-01-15T07:24:38.861Z,3.97
2023-01-15T07:27:07.278Z,3.65
2023-01-15T07:29:34.975Z,4.13
2023-01-15T07:32:03.145Z,4.30
2023-01-15T07:34:30.767Z,4.65
2023-01-15T07:36:58.685Z,4.25
2023-01-15T07:39:26.353Z,3.95
2023-01-15T07:42:13.066Z,4.03
2023-01-15T07:44:59.647Z,3.50
2023-01-15T07:47:46.601Z,4.00
2023-01-15T07:50:16.437Z,3.63
2023-01-15T07:52:44.499Z,3.80
2023-01-15T07:55:15.197Z,4.10
2023-01-15T07:57:43.894Z,3.97
2023-01-15T08:00:16.206Z,3.85
2023-01-15T08:02:46.061Z,4.07
2023-01-15T08:05:14.082Z,4.13
2023-01-15T08:07:43.083Z,4.40
2023-01-15T08:10:12.898Z,4.60
2023-01-15T08:13:00.109Z,4.50
2023-01-15T08:15:30.846Z,4.10
2023-01-15T08:17:58.744Z,3.97
2023-01-15T08:20:27.377Z,3.88
2023-01-15T08:22:55.522Z,4.28
2023-01-15T08:25:25.684Z,4.07
2023-01-15T08:27:54.162Z,4.10
2023-01-15T08:30:24.518Z,4.20
2023-01-15T08:32:52.826Z,4.18
2023-01-15T08:35:20.696Z,4.38
2023-01-15T08:37:48.682Z,4.65
2023-01-15T08:40:16.440Z,4.60
2023-01-15T08:42:44.439Z,4.38
2023-01-15T08:45:12.435Z,4.63
2023-01-15T08:47:40.629Z,4.30
2023-01-15T08:50:09.610Z,4.05
2023-01-15T08:52:38.657Z,3.10
2023-01-15T08:55:07.079Z,3.90
2023-01-15T08:57:35.577Z,4.07
2023-01-15T09:00:04.065Z,3.75
2023-01-15T09:02:32.201Z,3.60
2023-01-15T09:04:59.924Z,4.18
2023-01-15T09:07:27.912Z,4.15
2023-01-15T09:09:55.700Z,4.65
2023-01-15T09:12:26.449Z,3.83
2023-01-15T09:14:59.140Z,2.78
2023-01-15T09:17:33.095Z,3.72
2023-01-15T09:20:01.252Z,4.25
2023-01-15T09:22:31.053Z,4.10
2023-01-15T09:24:59.406Z,4.13
2023-01-15T09:27:28.797Z,4.20
2023-01-15T09:29:57.239Z,4.03
2023-01-15T09:32:25.497Z,3.53
2023-01-15T09:34:53.250Z,4.20
2023-01-15T09:37:21.270Z,4.70
2023-01-15T09:39:49.324Z,4.85
2023-01-15T09:42:22.716Z,5.15
2023-01-15T09:44:53.178Z,4.05
2023-01-15T09:47:34.655Z,4.80
2023-01-15T09:50:28.533Z,4.55
2023-01-15T09:53:05.323Z,4.50
2023-01-15T09:55:36.038Z,4.50
2023-01-15T09:58:06.188Z,5.03
2023-01-15T10:00:40.858Z,5.00
2023-01-15T10:03:35.896Z,4.63
2023-01-15T10:06:16.048Z,5.05
2023-01-15T10:08:47.361Z,4.90
2023-01-15T10:11:18.762Z,4.70
2023-01-15T10:13:48.565Z,5.63
2023-01-15T10:16:33.753Z,5.05
2023-01-15T10:19:02.717Z,5.18
2023-01-15T10:21:48.165Z,5.22
2023-01-15T10:24:23.411Z,6.35
2023-01-15T10:27:00.637Z,5.88
2023-01-15T10:29:49.371Z,5.50
2023-01-15T10:32:23.541Z,5.65
2023-01-15T10:35:08.901Z,5.20
2023-01-15T10:37:58.018Z,5.70
2023-01-15T10:40:31.480Z,5.82
2023-01-15T10:43:19.307Z,6.25
2023-01-15T10:46:12.937Z,6.15
2023-01-15T10:48:46.063Z,6.55
2023-01-15T10:51:28.096Z,6.75
2023-01-15T10:54:24.720Z,6.78
2023-01-15T10:57:01.883Z,6.97
2023-01-15T10:59:42.685Z,7.40
2023-01-15T11:02:32.487Z,6.75
2023-01-15T11:05:01.358Z,5.85
2023-01-15T11:07:50.110Z,7.00
2023-01-15T11:10:27.441Z,7.28
2023-01-15T11:13:17.321Z,7.25
2023-01-15T11:16:08.945Z,6.97
2023-01-15T11:19:00.403Z,7.40
2023-01-15T11:21:30.260Z,6.80
2023-01-15T11:24:00.241Z,7.88
2023-01-15T11:26:33.481Z,7.68
2023-01-15T11:29:14.895Z,6.15
2023-01-15T11:31:42.632Z,7.07
2023-01-15T11:34:24.304Z,7.82
2023-01-15T11:37:05.617Z,7.47
2023-01-15T11:39:34.060Z,8.05
2023-01-15T11:42:25.696Z,5.95
2023-01-15T11:45:14.472Z,8.10
2023-01-15T11:48:14.496Z,8.25
2023-01-15T11:51:16.101Z,7.22
2023-01-15T11:53:50.450Z,7.90
2023-01-15T11:56:27.492Z,7.90
2023-01-15T11:58:57.616Z,7.28
2023-01-15T12:01:32.869Z,8.20
2023-01-15T12:04:04.804Z,6.22
2023-01-15T12:06:36.977Z,8.02
2023-01-15T12:09:21.648Z,7.55
2023-01-15T12:12:17.445Z,7.63
2023-01-15T12:14:54.374Z,7.20
2023-01-15T12:17:50.658Z,7.05
2023-01-15T12:20:21.058Z,7.43
2023-01-15T12:22:51.800Z,7.82
2023-01-15T12:25:55.034Z,8.07
2023-01-15T12:28:29.123Z,8.20
2023-01-15T12:33:47.713Z,7.85
2023-01-15T12:36:41.868Z,8.02
2023-01-15T12:39:26.871Z,8.52
2023-01-15T12:42:19.454Z,8.02
2023-01-15T12:45:04.925Z,8.73
2023-01-15T12:47:49.991Z,9.30
2023-01-15T12:50:44.694Z,7.32
2023-01-15T12:53:33.717Z,9.07
2023-01-15T12:56:29.321Z,9.40
2023-01-15T12:59:14.725Z,9.02
2023-01-15T13:02:12.732Z,9.13
2023-01-15T13:04:43.690Z,9.43
2023-01-15T13:07:19.621Z,8.68
2023-01-15T13:10:19.979Z,9.30
2023-01-15T13:12:48.209Z,9.85
2023-01-15T13:15:18.029Z,8.93
2023-01-15T13:18:21.959Z,9.45
2023-01-15T13:20:52.202Z,9.23
2023-01-15T13:23:38.433Z,8.73
2023-01-15T13:26:23.474Z,8.95
2023-01-15T13:28:52.265Z,8.70
2023-01-15T13:31:55.061Z,9.15
2023-01-15T13:34:38.999Z,10.15
2023-01-15T13:37:26.912Z,8.40
2023-01-15T13:40:01.616Z,9.05
2023-01-15T13:42:37.992Z,8.85
2023-01-15T13:45:27.897Z,9.73
2023-01-15T13:48:05.974Z,8.73
2023-01-15T13:50:37.394Z,9.82
2023-01-15T13:53:16.766Z,6.97
2023-01-15T13:56:01.487Z,8.68
2023-01-15T13:58:32.740Z,9.15
2023-01-15T14:01:22.015Z,9.05
2023-01-15T14:04:17.341Z,8.60
2023-01-15T14:06:50.839Z,8.68
2023-01-15T14:09:24.353Z,9.15
2023-01-15T14:12:07.315Z,9.75
2023-01-15T14:14:56.083Z,9.38
2023-01-15T14:18:20.628Z,9.10
2023-01-15T14:20:56.508Z,8.48
2023-01-15T14:23:33.082Z,9.77
2023-01-15T14:26:07.170Z,9.15
2023-01-15T14:28:50.526Z,9.32
2023-01-15T14:31:46.434Z,9.20
2023-01-15T14:34:17.258Z,9.98
2023-01-15T14:36:57.709Z,9.18
2023-01-15T14:39:41.865Z,10.02
2023-01-15T14:42:40.146Z,10.18
2023-01-15T14:45:12.366Z,9.00
2023-01-15T14:47:50.678Z,9.52
2023-01-15T14:50:31.466Z,10.07
2023-01-15T14:53:13.873Z,10.15
2023-01-15T14:56:07.155Z,9.60
2023-01-15T14:58:48.097Z,9.70
2023-01-15T15:01:41.432Z,10.02
2023-01-15T15:04:15.487Z,10.35
2023-01-15T15:07:07.560Z,10.77
2023-01-15T15:09:46.676Z,11.43
2023-01-15T15:12:33.027Z,9.00
2023-01-15T15:15:21.951Z,10.07
2023-01-15T15:18:12.630Z,10.55
2023-01-15T15:20:43.459Z,10.35
2023-01-15T15:23:30.312Z,10.10
2023-01-15T15:26:04.209Z,11.25
2023-01-15T15:28:32.327Z,11.48
2023-01-15T15:31:01.807Z,11.50
2023-01-15T15:33:40.415Z,11.02
2023-01-15T15:36:09.315Z,11.00
2023-01-15T15:38:41.763Z,11.70
2023-01-15T15:41:12.843Z,11.35
2023-01-15T15:44:11.198Z,12.18
2023-01-15T15:46:57.569Z,11.48
2023-01-15T15:49:25.581Z,10.45
2023-01-15T15:51:54.250Z,10.65
2023-01-15T15:54:29.791Z,11.38
2023-01-15T15:57:10.530Z,11.95
2023-01-15T15:59:52.414Z,11.07
2023-01-15T16:02:37.885Z,11.90
2023-01-15T16:05:23.925Z,11.63
2023-01-15T16:07:52.851Z,11.65
2023-01-15T16:10:50.947Z,11.18
2023-01-15T16:13:39.983Z,10.50
2023-01-15T16:16:09.139Z,10.88
2023-01-15T16:18:58.092Z,10.50
2023-01-15T16:21:41.505Z,11.27
2023-01-15T16:24:22.726Z,10.55
2023-01-15T16:27:12.024Z,10.88
2023-01-15T16:29:39.824Z,10.68
2023-01-15T16:32:13.309Z,10.75
2023-01-15T16:34:41.675Z,11.88
2023-01-15T16:37:30.760Z,11.98
2023-01-15T16:40:01.148Z,9.88
2023-01-15T16:42:40.056Z,11.02
2023-01-15T16:45:28.247Z,11.75
2023-01-15T16:48:08.205Z,11.35
2023-01-15T16:50:42.642Z,10.90
2023-01-15T16:53:33.771Z,11.05
2023-01-15T16:56:01.770Z,11.23
2023-01-15T16:58:41.419Z,12.55
2023-01-15T17:01:37.839Z,12.93
2023-01-15T17:04:34.236Z,12.82
2023-01-15T17:07:15.984Z,12.40
2023-01-15T17:09:51.198Z,11.63
2023-01-15T17:12:40.087Z,11.38
2023-01-15T17:15:17.659Z,11.13
2023-01-15T17:17:49.758Z,11.50
2023-01-15T17:20:19.865Z,10.70
2023-01-15T17:22:49.614Z,11.05
2023-01-15T17:25:35.220Z,11.32
2023-01-15T17:28:03.891Z,10.85
2023-01-15T17:30:33.183Z,10.60
2023-01-15T17:33:03.187Z,10.45
2023-01-15T17:35:36.917Z,11.25
2023-01-15T17:38:06.761Z,9.73
2023-01-15T17:40:34.915Z,10.07
2023-01-15T17:43:02.725Z,9.55
2023-01-15T17:45:32.537Z,9.93
2023-01-15T17:48:02.000Z,9.93
2023-01-15T17:50:30.647Z,8.57
2023-01-15T17:52:58.273Z,9.63
2023-01-15T17:55:45.209Z,9.55
2023-01-15T17:58:34.693Z,10.15
2023-01-15T18:01:29.775Z,10.25
2023-01-15T18:04:17.936Z,9.20
2023-01-15T18:06:50.577Z,9.25
2023-01-15T18:09:21.540Z,9.18
2023-01-15T18:11:49.550Z,8.90
2023-01-15T18:14:17.887Z,9.38
2023-01-15T18:16:45.882Z,8.40
2023-01-15T18:19:13.650Z,8.60
2023-01-15T18:21:42.220Z,8.80
2023-01-15T18:24:11.913Z,9.25
2023-01-15T18:26:41.726Z,9.10
2023-01-15T18:29:11.598Z,9.45
2023-01-15T18:31:40.643Z,9.43
2023-01-15T18:34:08.839Z,9.02
2023-01-15T18:36:36.855Z,9.18
2023-01-15T18:39:07.362Z,9.52
2023-01-15T18:41:36.323Z,9.70
2023-01-15T18:44:31.726Z,9.65
2023-01-15T18:47:06.027Z,9.73
2023-01-15T18:49:33.656Z,10.02
2023-01-15T18:52:20.206Z,10.90
2023-01-15T18:54:47.917Z,9.80
2023-01-15T18:57:16.627Z,10.55
2023-01-15T18:59:48.292Z,10.35
2023-01-15T19:02:17.975Z,11.35
2023-01-15T19:04:47.279Z,10.70
2023-01-15T19:07:16.246Z,11.15
2023-01-15T19:09:44.016Z,11.82
2023-01-15T19:12:12.077Z,10.90
2023-01-15T19:14:58.061Z,11.43
2023-01-15T19:17:44.948Z,11.88
2023-01-15T19:20:15.228Z,12.60
2023-01-15T19:23:05.235Z,12.02
2023-01-15T19:25:36.462Z,12.65
2023-01-15T19:28:05.053Z,12.88
2023-01-15T19:30:34.965Z,12.35
2023-01-15T19:33:03.131Z,12.73
2023-01-15T19:35:31.585Z,12.05
2023-01-15T19:37:59.936Z,12.10
2023-01-15T19:40:27.590Z,10.63
2023-01-15T19:43:14.063Z,10.10
2023-01-15T19:46:03.582Z,10.77
2023-01-15T19:48:52.210Z,9.38
2023-01-15T19:51:21.109Z,9.50
2023-01-15T19:53:49.191Z,10.35
2023-01-15T19:56:16.817Z,9.18
2023-01-15T19:58:44.737Z,8.63
2023-01-15T20:01:17.432Z,9.30
2023-01-15T20:03:46.637Z,8.88
2023-01-15T20:06:14.341Z,8.57
2023-01-15T20:08:42.331Z,9.73
2023-01-15T20:11:10.099Z,8.82
2023-01-15T20:13:53.297Z,9.48
2023-01-15T20:16:22.752Z,10.02
2023-01-15T20:18:51.866Z,9.13
2023-01-15T20:21:19.785Z,9.05
2023-01-15T20:23:47.865Z,9.02
2023-01-15T20:26:16.069Z,8.35
2023-01-15T20:28:47.539Z,7.78
2023-01-15T20:31:17.696Z,7.30
2023-01-15T20:33:47.012Z,7.35
2023-01-15T20:36:14.978Z,8.10
2023-01-15T20:38:43.007Z,7.43
2023-01-15T20:41:30.600Z,7.63
2023-01-15T20:44:17.061Z,7.90
2023-01-15T20:46:44.749Z,8.93
2023-01-15T20:49:25.231Z,9.55
2023-01-15T20:51:53.539Z,8.35
2023-01-15T20:54:22.177Z,8.07
2023-01-15T20:56:49.824Z,8.05
2023-01-15T20:59:17.803Z,9.60
2023-01-15T21:01:45.646Z,9.93
2023-01-15T21:04:13.953Z,9.70
2023-01-15T21:06:41.876Z,10.75
2023-01-15T21:09:09.906Z,10.63
2023-01-15T21:11:37.620Z,11.95
2023-01-15T21:14:05.555Z,14.57
2023-01-15T21:16:33.408Z,12.93
2023-01-15T21:19:04.478Z,13.90
2023-01-15T21:21:32.260Z,14.30
2023-01-15T21:24:01.631Z,14.27
2023-01-15T21:26:30.040Z,14.13
2023-01-15T21:28:58.152Z,14.25
2023-01-15T21:31:26.003Z,14.48
2023-01-15T21:33:55.430Z,14.45
2023-01-15T21:36:24.477Z,13.75
2023-01-15T21:38:56.858Z,12.10
2023-01-15T21:41:45.277Z,12.18
2023-01-15T21:44:36.002Z,11.40
2023-01-15T21:47:06.487Z,10.73
2023-01-15T21:49:35.089Z,10.90
2023-01-15T21:52:05.183Z,11.15
2023-01-15T21:54:33.607Z,10.90
2023-01-15T21:57:01.621Z,11.45
2023-01-15T21:59:29.836Z,9.35
2023-01-15T22:01:59.284Z,9.45
2023-01-15T22:04:29.115Z,9.95
2023-01-15T22:06:57.343Z,9.55
2023-01-15T22:09:25.541Z,9.18
2023-01-15T22:11:53.679Z,9.05
2023-01-15T22:14:27.698Z,9.57
2023-01-15T22:16:57.245Z,8.45
2023-01-15T22:19:27.404Z,8.18
2023-01-15T22:21:57.820Z,8.88
2023-01-15T22:24:31.454Z,8.90
2023-01-15T22:27:00.455Z,8.82
2023-01-15T22:29:31.947Z,8.63
2023-01-15T22:32:01.086Z,8.00
2023-01-15T22:34:43.645Z,7.33
2023-01-15T22:37:14.630Z,8.25
2023-01-15T22:39:42.561Z,7.90
2023-01-15T22:42:24.377Z,7.43
2023-01-15T22:44:53.068Z,7.88
2023-01-15T22:47:22.411Z,8.65
2023-01-15T22:49:50.888Z,8.13
2023-01-15T22:52:18.711Z,8.00
2023-01-15T22:54:47.390Z,6.55
2023-01-15T22:57:16.672Z,6.93
2023-01-15T22:59:45.366Z,7.10
2023-01-15T23:02:13.694Z,6.47
2023-01-15T23:04:41.813Z,6.93
2023-01-15T23:07:10.070Z,6.90
2023-01-15T23:09:38.059Z,5.90
2023-01-15T23:12:05.827Z,6.88
2023-01-15T23:14:33.855Z,6.80
2023-01-15T23:17:01.704Z,6.35
2023-01-15T23:19:29.577Z,6.10
2023-01-15T23:21:57.921Z,6.35
2023-01-15T23:24:25.965Z,5.90
2023-01-15T23:26:53.610Z,6.13
2023-01-15T23:29:21.575Z,6.10
2023-01-15T23:31:49.146Z,5.97
2023-01-15T23:34:17.010Z,5.78
2023-01-15T23:36:44.610Z,5.78
2023-01-15T23:39:12.530Z,5.47
2023-01-15T23:41:58.653Z,5.80
2023-01-15T23:44:45.036Z,6.00
2023-01-15T23:47:12.743Z,5.75
2023-01-15T23:49:40.702Z,5.15
2023-01-15T23:52:08.447Z,5.82
2023-01-15T23:54:36.382Z,5.75
2023-01-15T23:57:04.434Z,5.38
2023-01-15T23:59:32.393Z,5.35
